Cap Cleveland — A8MA9 — position and weather

sailwx.info

Track history (hours):
 
Tides and Currents Weather Stations Pressure Air Temp Water Temp Dewpoint Dewpoint Depression Visibility Wind Speed Wind Dir Waves Ship Positions

Cap Cleveland

Last reported at 2017-Oct-28 18:53 UTC. Time now 2017-Nov-21 20:58 UTC.
Position N 25°46' W 080°09'.
Warning: this ship's position is 24 days out of date.

Type: Ship (hazmat cat A). MMSI: 636091521.

Date/timePositionNaut miles runAvg speedWind from/ knotsBaromVisibWave heightAir tempDewpointWater temp
2017-Oct-28 18:53N 25°46' W 080°09'0 0.0
2017-Oct-28 18:23N 25°46' W 080°09'0 0.0
2017-Oct-28 17:59N 25°46' W 080°09'0 0.0
2017-Oct-28 17:29N 25°46' W 080°09'0 0.0
2017-Oct-28 16:59N 25°46' W 080°09'0 0.0
2017-Oct-28 16:29N 25°46' W 080°09'0 0.0
2017-Oct-28 15:56N 25°46' W 080°09'0 0.0
2017-Oct-28 15:26N 25°46' W 080°09'0 0.0
2017-Oct-28 14:56N 25°46' W 080°09'0 0.0
2017-Oct-28 14:29N 25°46' W 080°09'0 0.0
2017-Oct-28 13:59N 25°46' W 080°09'0 0.0
2017-Oct-28 13:29N 25°46' W 080°09'0 0.0
2017-Oct-28 12:59N 25°46' W 080°09'0 0.0
2017-Oct-28 12:29N 25°46' W 080°09'0 0.0
2017-Oct-28 11:59N 25°46' W 080°09'0 0.0
2017-Oct-28 11:29N 25°46' W 080°09'0 0.6
2017-Oct-28 11:00N 25°46' W 080°09'510.2
2017-Oct-28 10:30N 25°47' W 080°03'3 6.2
2017-Oct-28 10:00N 25°48' W 080°00'2 3.3
2017-Oct-28 09:30N 25°50' W 079°59'3 5.5
2017-Oct-28 09:00N 25°52' W 079°58'510.7
2017-Oct-28 08:31N 25°57' W 079°55'510.3
2017-Oct-28 08:00N 26°01' W 079°53'510.6
2017-Oct-28 07:31N 26°06' W 079°50'612.0
2017-Oct-28 07:00N 26°12' W 079°49'612.2
2017-Oct-28 06:30N 26°18' W 079°49'611.3
2017-Oct-28 06:01N 26°24' W 079°48'510.2
2017-Oct-28 05:29N 26°29' W 079°48'2110.9
2017-Oct-28 03:35N 26°50' W 079°46'111.2
2017-Oct-28 03:30N 26°51' W 079°46'611.2
2017-Oct-28 02:58N 26°57' W 079°46'28812.8
2017-Oct-27 04:34N 31°41' W 080°30'113.9
2017-Oct-27 04:28N 31°43' W 080°31'613.9
2017-Oct-27 04:00N 31°48' W 080°35'714.0
2017-Oct-27 03:30N 31°54' W 080°39'713.4
2017-Oct-27 03:00N 31°59' W 080°45'713.2
2017-Oct-27 02:30N 32°02' W 080°51'510.8
2017-Oct-27 02:00N 32°04' W 080°57'5 9.4
2017-Oct-27 01:30N 32°05' W 081°03'3 6.5
2017-Oct-27 01:01N 32°06' W 081°06'2 3.4
2017-Oct-27 00:26N 32°07' W 081°08'0 0.0
2017-Oct-26 23:56N 32°07' W 081°08'0 0.0
2017-Oct-26 23:26N 32°07' W 081°08'0 0.0
2017-Oct-26 22:56N 32°07' W 081°08'0 0.0
2017-Oct-26 22:26N 32°07' W 081°08'0 0.0
2017-Oct-26 21:56N 32°07' W 081°08'0 0.0
2017-Oct-26 21:26N 32°07' W 081°08'0 0.0
2017-Oct-26 20:56N 32°07' W 081°08'0 0.0
2017-Oct-26 20:26N 32°07' W 081°08'0 0.0
2017-Oct-26 19:56N 32°07' W 081°08'0 0.0
2017-Oct-26 19:26N 32°07' W 081°08'0 0.0
2017-Oct-26 18:56N 32°07' W 081°08'0 0.0
2017-Oct-26 18:20N 32°07' W 081°08'0 0.0
2017-Oct-26 17:56N 32°07' W 081°08'0 0.0
2017-Oct-26 17:26N 32°07' W 081°08'0 0.0
2017-Oct-26 16:56N 32°07' W 081°08'0 0.0
2017-Oct-26 16:26N 32°07' W 081°08'0 0.0
2017-Oct-26 15:56N 32°07' W 081°08'0 0.0
2017-Oct-26 15:26N 32°07' W 081°08'0 0.0
2017-Oct-26 14:56N 32°07' W 081°08'0 0.0
2017-Oct-26 14:26N 32°07' W 081°08'0 0.0
2017-Oct-26 13:56N 32°07' W 081°08'0 0.0
2017-Oct-26 13:26N 32°07' W 081°08'0 0.0
2017-Oct-26 12:57N 32°07' W 081°08'0 0.0
2017-Oct-26 12:26N 32°07' W 081°08'0 0.0
2017-Oct-26 11:44N 32°07' W 081°08'0 0.0
2017-Oct-26 11:14N 32°07' W 081°08'0 0.0
2017-Oct-26 10:56N 32°07' W 081°08'0 0.0
2017-Oct-26 10:30N 32°07' W 081°08'0 0.3
2017-Oct-26 10:00N 32°07' W 081°08'3 5.1
2017-Oct-26 09:30N 32°05' W 081°06'3 7.0
2017-Oct-26 09:00N 32°05' W 081°02'5 9.3
2017-Oct-26 08:30N 32°04' W 080°57'510.7
2017-Oct-26 08:00N 32°02' W 080°51'713.1
2017-Oct-26 07:31N 31°58' W 080°44'4 7.5
2017-Oct-26 07:00N 31°57' W 080°40'24715.3
2017-Oct-25 14:54N 34°02' W 076°26'616.2
2017-Oct-25 14:30N 34°05' W 076°20'816.7
2017-Oct-25 14:00N 34°10' W 076°12'816.7
2017-Oct-25 13:30N 34°15' W 076°03'816.9
2017-Oct-25 13:00N 34°19' W 075°55'917.2
2017-Oct-25 12:30N 34°24' W 075°46'917.3
2017-Oct-25 12:00N 34°29' W 075°37'31415.9
2017-Oct-24 16:13N 39°32' W 073°50'615.9
2017-Oct-24 15:51N 39°38' W 073°50'715.9
2017-Oct-24 15:23N 39°45' W 073°50'615.9
2017-Oct-24 14:59N 39°52' W 073°50'2415.8
2017-Oct-24 13:28N 40°15' W 073°49'815.7
2017-Oct-24 13:00N 40°23' W 073°48'5 9.5
2017-Oct-24 12:31N 40°27' W 073°51'5 9.7
2017-Oct-24 11:59N 40°30' W 073°56'511.3
2017-Oct-24 11:30N 40°33' W 074°02'713.1
2017-Oct-24 11:00N 40°40' W 074°03'2 4.5
2017-Oct-24 10:30N 40°41' W 074°01'0 0.2
2017-Oct-24 09:58N 40°41' W 074°01'0 0.0
2017-Oct-24 09:28N 40°41' W 074°01'0 0.0
2017-Oct-24 08:58N 40°41' W 074°01'0 0.0
2017-Oct-24 08:28N 40°41' W 074°01'0 0.0
2017-Oct-24 07:58N 40°41' W 074°01'0 0.0
2017-Oct-24 07:28N 40°41' W 074°01'0 0.0
2017-Oct-24 06:58N 40°41' W 074°01'0 0.0
2017-Oct-24 06:25N 40°41' W 074°01'0 0.0
2017-Oct-24 05:58N 40°41' W 074°01'0 0.0
2017-Oct-24 05:28N 40°41' W 074°01'0 0.0
2017-Oct-24 04:58N 40°41' W 074°01'0 0.0
2017-Oct-24 04:28N 40°41' W 074°01'0 0.0
2017-Oct-24 03:58N 40°41' W 074°01'0 0.0
2017-Oct-24 03:28N 40°41' W 074°01'0 0.0
2017-Oct-24 02:58N 40°41' W 074°01'0 0.0
2017-Oct-24 02:28N 40°41' W 074°01'0 0.0
2017-Oct-24 01:58N 40°41' W 074°01'0 0.0
2017-Oct-24 01:28N 40°41' W 074°01'0 0.0
2017-Oct-24 00:58N 40°41' W 074°01'0 0.0
2017-Oct-24 00:28N 40°41' W 074°01'0 0.0
2017-Oct-23 23:58N 40°41' W 074°01'0 0.0
2017-Oct-23 23:28N 40°41' W 074°01'0 0.0
2017-Oct-23 22:58N 40°41' W 074°01'0 0.0
2017-Oct-23 22:28N 40°41' W 074°01'0 0.0
2017-Oct-23 22:00N 40°41' W 074°01'2 4.9
2017-Oct-23 21:30N 40°40' W 074°03'611.3
2017-Oct-23 21:00N 40°34' W 074°02'4 7.9
2017-Oct-23 20:30N 40°31' W 073°59'611.2
2017-Oct-23 20:00N 40°28' W 073°52'611.7
2017-Oct-23 19:29N 40°27' W 073°44'5315.1
2017-Oct-23 15:57N 40°31' W 072°34'1815.4
2017-Oct-23 14:46N 40°31' W 072°10'1715.4
2017-Oct-23 13:40N 40°31' W 071°48'215.5
2017-Oct-23 13:30N 40°31' W 071°45'815.2
2017-Oct-23 13:00N 40°31' W 071°35'1115.2
2017-Oct-23 12:18N 40°32' W 071°21'515.4
2017-Oct-23 12:00N 40°32' W 071°15'815.4
2017-Oct-23 11:30N 40°32' W 071°05'1015.3
2017-Oct-23 10:50N 40°33' W 070°51'  
Track history (hours):
 
Tides and Currents Weather Stations Pressure Air Temp Water Temp Dewpoint Dewpoint Depression Visibility Wind Speed Wind Dir Waves Ship Positions

Cap Cleveland

Last reported at 2017-Oct-28 18:53 UTC. Time now 2017-Nov-21 20:58 UTC.
Position N 25°46' W 080°09'.
Warning: this ship's position is 24 days out of date.

Type: Ship (hazmat cat A). MMSI: 636091521.

Date/timePositionNaut miles runAvg speedWind from/ knotsBaromVisibWave heightAir tempDewpointWater temp
2017-Oct-28 18:53N 25°46' W 080°09'0 0.0
2017-Oct-28 18:23N 25°46' W 080°09'0 0.0
2017-Oct-28 17:59N 25°46' W 080°09'0 0.0
2017-Oct-28 17:29N 25°46' W 080°09'0 0.0
2017-Oct-28 16:59N 25°46' W 080°09'0 0.0
2017-Oct-28 16:29N 25°46' W 080°09'0 0.0
2017-Oct-28 15:56N 25°46' W 080°09'0 0.0
2017-Oct-28 15:26N 25°46' W 080°09'0 0.0
2017-Oct-28 14:56N 25°46' W 080°09'0 0.0
2017-Oct-28 14:29N 25°46' W 080°09'0 0.0
2017-Oct-28 13:59N 25°46' W 080°09'0 0.0
2017-Oct-28 13:29N 25°46' W 080°09'0 0.0
2017-Oct-28 12:59N 25°46' W 080°09'0 0.0
2017-Oct-28 12:29N 25°46' W 080°09'0 0.0
2017-Oct-28 11:59N 25°46' W 080°09'0 0.0
2017-Oct-28 11:29N 25°46' W 080°09'0 0.6
2017-Oct-28 11:00N 25°46' W 080°09'510.2
2017-Oct-28 10:30N 25°47' W 080°03'3 6.2
2017-Oct-28 10:00N 25°48' W 080°00'2 3.3
2017-Oct-28 09:30N 25°50' W 079°59'3 5.5
2017-Oct-28 09:00N 25°52' W 079°58'510.7
2017-Oct-28 08:31N 25°57' W 079°55'510.3
2017-Oct-28 08:00N 26°01' W 079°53'510.6
2017-Oct-28 07:31N 26°06' W 079°50'612.0
2017-Oct-28 07:00N 26°12' W 079°49'612.2
2017-Oct-28 06:30N 26°18' W 079°49'611.3
2017-Oct-28 06:01N 26°24' W 079°48'510.2
2017-Oct-28 05:29N 26°29' W 079°48'2110.9
2017-Oct-28 03:35N 26°50' W 079°46'111.2
2017-Oct-28 03:30N 26°51' W 079°46'611.2
2017-Oct-28 02:58N 26°57' W 079°46'28812.8
2017-Oct-27 04:34N 31°41' W 080°30'113.9
2017-Oct-27 04:28N 31°43' W 080°31'613.9
2017-Oct-27 04:00N 31°48' W 080°35'714.0
2017-Oct-27 03:30N 31°54' W 080°39'713.4
2017-Oct-27 03:00N 31°59' W 080°45'713.2
2017-Oct-27 02:30N 32°02' W 080°51'510.8
2017-Oct-27 02:00N 32°04' W 080°57'5 9.4
2017-Oct-27 01:30N 32°05' W 081°03'3 6.5
2017-Oct-27 01:01N 32°06' W 081°06'2 3.4
2017-Oct-27 00:26N 32°07' W 081°08'0 0.0
2017-Oct-26 23:56N 32°07' W 081°08'0 0.0
2017-Oct-26 23:26N 32°07' W 081°08'0 0.0
2017-Oct-26 22:56N 32°07' W 081°08'0 0.0
2017-Oct-26 22:26N 32°07' W 081°08'0 0.0
2017-Oct-26 21:56N 32°07' W 081°08'0 0.0
2017-Oct-26 21:26N 32°07' W 081°08'0 0.0
2017-Oct-26 20:56N 32°07' W 081°08'0 0.0
2017-Oct-26 20:26N 32°07' W 081°08'0 0.0
2017-Oct-26 19:56N 32°07' W 081°08'0 0.0
2017-Oct-26 19:26N 32°07' W 081°08'0 0.0
2017-Oct-26 18:56N 32°07' W 081°08'0 0.0
2017-Oct-26 18:20N 32°07' W 081°08'0 0.0
2017-Oct-26 17:56N 32°07' W 081°08'0 0.0
2017-Oct-26 17:26N 32°07' W 081°08'0 0.0
2017-Oct-26 16:56N 32°07' W 081°08'0 0.0
2017-Oct-26 16:26N 32°07' W 081°08'0 0.0
2017-Oct-26 15:56N 32°07' W 081°08'0 0.0
2017-Oct-26 15:26N 32°07' W 081°08'0 0.0
2017-Oct-26 14:56N 32°07' W 081°08'0 0.0
2017-Oct-26 14:26N 32°07' W 081°08'0 0.0
2017-Oct-26 13:56N 32°07' W 081°08'0 0.0
2017-Oct-26 13:26N 32°07' W 081°08'0 0.0
2017-Oct-26 12:57N 32°07' W 081°08'0 0.0
2017-Oct-26 12:26N 32°07' W 081°08'0 0.0
2017-Oct-26 11:44N 32°07' W 081°08'0 0.0
2017-Oct-26 11:14N 32°07' W 081°08'0 0.0
2017-Oct-26 10:56N 32°07' W 081°08'0 0.0
2017-Oct-26 10:30N 32°07' W 081°08'0 0.3
2017-Oct-26 10:00N 32°07' W 081°08'3 5.1
2017-Oct-26 09:30N 32°05' W 081°06'3 7.0
2017-Oct-26 09:00N 32°05' W 081°02'5 9.3
2017-Oct-26 08:30N 32°04' W 080°57'510.7
2017-Oct-26 08:00N 32°02' W 080°51'713.1
2017-Oct-26 07:31N 31°58' W 080°44'4 7.5
2017-Oct-26 07:00N 31°57' W 080°40'24715.3
2017-Oct-25 14:54N 34°02' W 076°26'616.2
2017-Oct-25 14:30N 34°05' W 076°20'816.7
2017-Oct-25 14:00N 34°10' W 076°12'816.7
2017-Oct-25 13:30N 34°15' W 076°03'816.9
2017-Oct-25 13:00N 34°19' W 075°55'917.2
2017-Oct-25 12:30N 34°24' W 075°46'917.3
2017-Oct-25 12:00N 34°29' W 075°37'31415.9
2017-Oct-24 16:13N 39°32' W 073°50'615.9
2017-Oct-24 15:51N 39°38' W 073°50'715.9
2017-Oct-24 15:23N 39°45' W 073°50'615.9
2017-Oct-24 14:59N 39°52' W 073°50'2415.8
2017-Oct-24 13:28N 40°15' W 073°49'815.7
2017-Oct-24 13:00N 40°23' W 073°48'5 9.5
2017-Oct-24 12:31N 40°27' W 073°51'5 9.7
2017-Oct-24 11:59N 40°30' W 073°56'511.3
2017-Oct-24 11:30N 40°33' W 074°02'713.1
2017-Oct-24 11:00N 40°40' W 074°03'2 4.5
2017-Oct-24 10:30N 40°41' W 074°01'0 0.2
2017-Oct-24 09:58N 40°41' W 074°01'0 0.0
2017-Oct-24 09:28N 40°41' W 074°01'0 0.0
2017-Oct-24 08:58N 40°41' W 074°01'0 0.0
2017-Oct-24 08:28N 40°41' W 074°01'0 0.0
2017-Oct-24 07:58N 40°41' W 074°01'0 0.0
2017-Oct-24 07:28N 40°41' W 074°01'0 0.0
2017-Oct-24 06:58N 40°41' W 074°01'0 0.0
2017-Oct-24 06:25N 40°41' W 074°01'0 0.0
2017-Oct-24 05:58N 40°41' W 074°01'0 0.0
2017-Oct-24 05:28N 40°41' W 074°01'0 0.0
2017-Oct-24 04:58N 40°41' W 074°01'0 0.0
2017-Oct-24 04:28N 40°41' W 074°01'0 0.0
2017-Oct-24 03:58N 40°41' W 074°01'0 0.0
2017-Oct-24 03:28N 40°41' W 074°01'0 0.0
2017-Oct-24 02:58N 40°41' W 074°01'0 0.0
2017-Oct-24 02:28N 40°41' W 074°01'0 0.0
2017-Oct-24 01:58N 40°41' W 074°01'0 0.0
2017-Oct-24 01:28N 40°41' W 074°01'0 0.0
2017-Oct-24 00:58N 40°41' W 074°01'0 0.0
2017-Oct-24 00:28N 40°41' W 074°01'0 0.0
2017-Oct-23 23:58N 40°41' W 074°01'0 0.0
2017-Oct-23 23:28N 40°41' W 074°01'0 0.0
2017-Oct-23 22:58N 40°41' W 074°01'0 0.0
2017-Oct-23 22:28N 40°41' W 074°01'0 0.0
2017-Oct-23 22:00N 40°41' W 074°01'2 4.9
2017-Oct-23 21:30N 40°40' W 074°03'611.3
2017-Oct-23 21:00N 40°34' W 074°02'4 7.9
2017-Oct-23 20:30N 40°31' W 073°59'611.2
2017-Oct-23 20:00N 40°28' W 073°52'611.7
2017-Oct-23 19:29N 40°27' W 073°44'5315.1
2017-Oct-23 15:57N 40°31' W 072°34'1815.4
2017-Oct-23 14:46N 40°31' W 072°10'1715.4
2017-Oct-23 13:40N 40°31' W 071°48'215.5
2017-Oct-23 13:30N 40°31' W 071°45'815.2
2017-Oct-23 13:00N 40°31' W 071°35'1115.2
2017-Oct-23 12:18N 40°32' W 071°21'515.4
2017-Oct-23 12:00N 40°32' W 071°15'815.4
2017-Oct-23 11:30N 40°32' W 071°05'1015.3
2017-Oct-23 10:50N 40°33' W 070°51'  

Dump ship's entire track history